sensor_id;sensor_type;location;lat;lon;timestamp;P1;durP1;ratioP1;P2;durP2;ratioP2
53939;SDS011;39850;43.324;21.916;2023-04-28T00:04:22;28.0;;;23.0;;
53939;SDS011;39850;43.324;21.916;2023-04-28T00:36:40;20.0;;;17.0;;
53939;SDS011;39850;43.324;21.916;2023-04-28T00:41:17;20.0;;;17.0;;
53939;SDS011;39850;43.324;21.916;2023-04-28T00:45:55;20.0;;;17.0;;
53939;SDS011;39850;43.324;21.916;2023-04-28T00:50:32;20.0;;;18.0;;
53939;SDS011;39850;43.324;21.916;2023-04-28T00:55:15;20.0;;;18.0;;
53939;SDS011;39850;43.324;21.916;2023-04-28T00:59:53;20.0;;;17.0;;
53939;SDS011;39850;43.324;21.916;2023-04-28T01:04:32;20.0;;;17.0;;
53939;SDS011;39850;43.324;21.916;2023-04-28T01:09:11;20.0;;;17.0;;
53939;SDS011;39850;43.324;21.916;2023-04-28T01:13:48;20.0;;;17.0;;
53939;SDS011;39850;43.324;21.916;2023-04-28T01:18:26;19.0;;;16.0;;
53939;SDS011;39850;43.324;21.916;2023-04-28T01:23:03;19.0;;;16.0;;
53939;SDS011;39850;43.324;21.916;2023-04-28T01:59:56;15.0;;;13.0;;
53939;SDS011;39850;43.324;21.916;2023-04-28T02:04:33;15.0;;;13.0;;
53939;SDS011;39850;43.324;21.916;2023-04-28T02:09:09;15.0;;;14.0;;
53939;SDS011;39850;43.324;21.916;2023-04-28T02:13:46;15.0;;;14.0;;
53939;SDS011;39850;43.324;21.916;2023-04-28T02:18:22;15.0;;;13.0;;
53939;SDS011;39850;43.324;21.916;2023-04-28T02:22:59;15.0;;;13.0;;
53939;SDS011;39850;43.324;21.916;2023-04-28T02:27:37;15.0;;;14.0;;
53939;SDS011;39850;43.324;21.916;2023-04-28T02:32:13;15.0;;;14.0;;
53939;SDS011;39850;43.324;21.916;2023-04-28T02:36:50;15.0;;;13.0;;
53939;SDS011;39850;43.324;21.916;2023-04-28T02:41:27;15.0;;;13.0;;
53939;SDS011;39850;43.324;21.916;2023-04-28T02:46:05;15.0;;;13.0;;
53939;SDS011;39850;43.324;21.916;2023-04-28T03:18:24;18.0;;;15.0;;
53939;SDS011;39850;43.324;21.916;2023-04-28T03:23:01;18.0;;;15.0;;
53939;SDS011;39850;43.324;21.916;2023-04-28T03:27:38;18.0;;;16.0;;
53939;SDS011;39850;43.324;21.916;2023-04-28T03:32:15;18.0;;;16.0;;
53939;SDS011;39850;43.324;21.916;2023-04-28T03:36:52;18.0;;;16.0;;
53939;SDS011;39850;43.324;21.916;2023-04-28T03:41:29;18.0;;;15.0;;
53939;SDS011;39850;43.324;21.916;2023-04-28T03:46:06;18.0;;;15.0;;
53939;SDS011;39850;43.324;21.916;2023-04-28T03:50:43;18.0;;;16.0;;
53939;SDS011;39850;43.324;21.916;2023-04-28T03:55:20;18.0;;;16.0;;
53939;SDS011;39850;43.324;21.916;2023-04-28T03:59:57;18.0;;;15.0;;
53939;SDS011;39850;43.324;21.916;2023-04-28T04:04:33;18.0;;;15.0;;
53939;SDS011;39850;43.324;21.916;2023-04-28T04:41:27;19.0;;;15.0;;
53939;SDS011;39850;43.324;21.916;2023-04-28T04:46:04;19.0;;;15.0;;
53939;SDS011;39850;43.324;21.916;2023-04-28T04:50:41;19.0;;;15.0;;
53939;SDS011;39850;43.324;21.916;2023-04-28T04:55:18;19.0;;;15.0;;
53939;SDS011;39850;43.324;21.916;2023-04-28T04:59:55;19.0;;;15.0;;
53939;SDS011;39850;43.324;21.916;2023-04-28T05:04:31;19.0;;;15.0;;
53939;SDS011;39850;43.324;21.916;2023-04-28T05:09:08;18.0;;;14.0;;
53939;SDS011;39850;43.324;21.916;2023-04-28T05:13:44;18.0;;;14.0;;
53939;SDS011;39850;43.324;21.916;2023-04-28T05:18:21;17.0;;;14.0;;
53939;SDS011;39850;43.324;21.916;2023-04-28T05:22:58;17.0;;;14.0;;
53939;SDS011;39850;43.324;21.916;2023-04-28T06:09:06;15.0;;;12.0;;
53939;SDS011;39850;43.324;21.916;2023-04-28T06:13:43;15.0;;;12.0;;
53939;SDS011;39850;43.324;21.916;2023-04-28T06:18:21;15.0;;;12.0;;
53939;SDS011;39850;43.324;21.916;2023-04-28T06:22:58;15.0;;;12.0;;
53939;SDS011;39850;43.324;21.916;2023-04-28T06:27:36;15.0;;;12.0;;
53939;SDS011;39850;43.324;21.916;2023-04-28T06:32:13;15.0;;;12.0;;
53939;SDS011;39850;43.324;21.916;2023-04-28T06:36:50;15.0;;;12.0;;
53939;SDS011;39850;43.324;21.916;2023-04-28T06:41:27;15.0;;;13.0;;
53939;SDS011;39850;43.324;21.916;2023-04-28T06:46:04;15.0;;;13.0;;
53939;SDS011;39850;43.324;21.916;2023-04-28T08:41:22;9.0;;;7.0;;
53939;SDS011;39850;43.324;21.916;2023-04-28T08:46:09;9.0;;;7.0;;
53939;SDS011;39850;43.324;21.916;2023-04-28T08:50:53;9.0;;;7.0;;
53939;SDS011;39850;43.324;21.916;2023-04-28T08:55:35;9.0;;;7.0;;
53939;SDS011;39850;43.324;21.916;2023-04-28T09:00:16;9.0;;;7.0;;
53939;SDS011;39850;43.324;21.916;2023-04-28T09:04:54;9.0;;;7.0;;
53939;SDS011;39850;43.324;21.916;2023-04-28T09:09:31;10.0;;;6.0;;
53939;SDS011;39850;43.324;21.916;2023-04-28T09:14:12;10.0;;;6.0;;
53939;SDS011;39850;43.324;21.916;2023-04-28T09:18:56;10.0;;;6.0;;
53939;SDS011;39850;43.324;21.916;2023-04-28T09:23:48;10.0;;;6.0;;
53939;SDS011;39850;43.324;21.916;2023-04-28T10:01:40;16.0;;;14.0;;
53939;SDS011;39850;43.324;21.916;2023-04-28T10:06:19;16.0;;;14.0;;
53939;SDS011;39850;43.324;21.916;2023-04-28T10:10:57;13.0;;;11.0;;
53939;SDS011;39850;43.324;21.916;2023-04-28T10:15:38;13.0;;;11.0;;
53939;SDS011;39850;43.324;21.916;2023-04-28T10:20:16;10.0;;;8.0;;
53939;SDS011;39850;43.324;21.916;2023-04-28T10:25:29;10.0;;;8.0;;
53939;SDS011;39850;43.324;21.916;2023-04-28T10:30:18;10.0;;;8.0;;
53939;SDS011;39850;43.324;21.916;2023-04-28T10:35:46;10.0;;;8.0;;
53939;SDS011;39850;43.324;21.916;2023-04-28T10:40:43;9.0;;;7.0;;
53939;SDS011;39850;43.324;21.916;2023-04-28T10:46:05;9.0;;;7.0;;
53939;SDS011;39850;43.324;21.916;2023-04-28T11:20:56;10.0;;;7.0;;
53939;SDS011;39850;43.324;21.916;2023-04-28T11:25:54;10.0;;;7.0;;
53939;SDS011;39850;43.324;21.916;2023-04-28T11:30:32;10.0;;;6.0;;
53939;SDS011;39850;43.324;21.916;2023-04-28T11:35:08;10.0;;;6.0;;
53939;SDS011;39850;43.324;21.916;2023-04-28T11:39:46;9.0;;;7.0;;
53939;SDS011;39850;43.324;21.916;2023-04-28T11:44:30;9.0;;;7.0;;
53939;SDS011;39850;43.324;21.916;2023-04-28T11:49:07;9.0;;;6.0;;
53939;SDS011;39850;43.324;21.916;2023-04-28T11:53:45;9.0;;;6.0;;
53939;SDS011;39850;43.324;21.916;2023-04-28T11:58:22;9.0;;;6.0;;
53939;SDS011;39850;43.324;21.916;2023-04-28T12:03:07;9.0;;;7.0;;
53939;SDS011;39850;43.324;21.916;2023-04-28T12:07:45;9.0;;;7.0;;
53939;SDS011;39850;43.324;21.916;2023-04-28T12:40:32;9.0;;;6.0;;
53939;SDS011;39850;43.324;21.916;2023-04-28T12:45:10;9.0;;;6.0;;
53939;SDS011;39850;43.324;21.916;2023-04-28T12:49:46;9.0;;;6.0;;
53939;SDS011;39850;43.324;21.916;2023-04-28T12:54:23;9.0;;;6.0;;
53939;SDS011;39850;43.324;21.916;2023-04-28T12:59:00;9.0;;;6.0;;
53939;SDS011;39850;43.324;21.916;2023-04-28T13:03:36;9.0;;;6.0;;
53939;SDS011;39850;43.324;21.916;2023-04-28T13:08:13;9.0;;;6.0;;
53939;SDS011;39850;43.324;21.916;2023-04-28T13:12:49;9.0;;;6.0;;
53939;SDS011;39850;43.324;21.916;2023-04-28T13:17:26;9.0;;;6.0;;
53939;SDS011;39850;43.324;21.916;2023-04-28T13:22:03;9.0;;;6.0;;
53939;SDS011;39850;43.324;21.916;2023-04-28T13:26:40;9.0;;;6.0;;
53939;SDS011;39850;43.324;21.916;2023-04-28T14:03:39;9.0;;;7.0;;
53939;SDS011;39850;43.324;21.916;2023-04-28T14:08:17;9.0;;;7.0;;
53939;SDS011;39850;43.324;21.916;2023-04-28T14:12:56;9.0;;;7.0;;
53939;SDS011;39850;43.324;21.916;2023-04-28T14:17:34;9.0;;;7.0;;
53939;SDS011;39850;43.324;21.916;2023-04-28T14:22:11;9.0;;;7.0;;
53939;SDS011;39850;43.324;21.916;2023-04-28T14:26:48;9.0;;;7.0;;
53939;SDS011;39850;43.324;21.916;2023-04-28T14:31:25;9.0;;;7.0;;
53939;SDS011;39850;43.324;21.916;2023-04-28T14:36:03;9.0;;;7.0;;
53939;SDS011;39850;43.324;21.916;2023-04-28T14:40:40;9.0;;;7.0;;
53939;SDS011;39850;43.324;21.916;2023-04-28T14:45:17;9.0;;;7.0;;
53939;SDS011;39850;43.324;21.916;2023-04-28T15:22:10;24.0;;;22.0;;
53939;SDS011;39850;43.324;21.916;2023-04-28T15:26:47;24.0;;;22.0;;
53939;SDS011;39850;43.324;21.916;2023-04-28T15:31:24;20.0;;;18.0;;
53939;SDS011;39850;43.324;21.916;2023-04-28T15:36:01;20.0;;;18.0;;
53939;SDS011;39850;43.324;21.916;2023-04-28T15:40:40;20.0;;;18.0;;
53939;SDS011;39850;43.324;21.916;2023-04-28T15:45:21;20.0;;;18.0;;
53939;SDS011;39850;43.324;21.916;2023-04-28T15:49:58;15.0;;;13.0;;
53939;SDS011;39850;43.324;21.916;2023-04-28T15:54:35;15.0;;;13.0;;
53939;SDS011;39850;43.324;21.916;2023-04-28T15:59:11;15.0;;;13.0;;
53939;SDS011;39850;43.324;21.916;2023-04-28T17:03:50;11.0;;;9.0;;
53939;SDS011;39850;43.324;21.916;2023-04-28T17:08:27;11.0;;;9.0;;
53939;SDS011;39850;43.324;21.916;2023-04-28T17:13:04;11.0;;;9.0;;
53939;SDS011;39850;43.324;21.916;2023-04-28T17:17:41;11.0;;;9.0;;
53939;SDS011;39850;43.324;21.916;2023-04-28T17:22:18;11.0;;;9.0;;
53939;SDS011;39850;43.324;21.916;2023-04-28T17:26:54;11.0;;;9.0;;
53939;SDS011;39850;43.324;21.916;2023-04-28T18:03:47;27.0;;;21.0;;
53939;SDS011;39850;43.324;21.916;2023-04-28T18:08:24;27.0;;;21.0;;
53939;SDS011;39850;43.324;21.916;2023-04-28T18:13:00;26.0;;;20.0;;
53939;SDS011;39850;43.324;21.916;2023-04-28T18:17:37;26.0;;;20.0;;
53939;SDS011;39850;43.324;21.916;2023-04-28T18:22:14;26.0;;;20.0;;
53939;SDS011;39850;43.324;21.916;2023-04-28T18:26:50;26.0;;;20.0;;
53939;SDS011;39850;43.324;21.916;2023-04-28T18:31:27;25.0;;;20.0;;
53939;SDS011;39850;43.324;21.916;2023-04-28T18:36:05;25.0;;;20.0;;
53939;SDS011;39850;43.324;21.916;2023-04-28T19:22:38;29.0;;;24.0;;
53939;SDS011;39850;43.324;21.916;2023-04-28T19:27:16;29.0;;;24.0;;
53939;SDS011;39850;43.324;21.916;2023-04-28T19:31:53;29.0;;;24.0;;
53939;SDS011;39850;43.324;21.916;2023-04-28T19:36:30;29.0;;;24.0;;
53939;SDS011;39850;43.324;21.916;2023-04-28T19:41:07;27.0;;;22.0;;
53939;SDS011;39850;43.324;21.916;2023-04-28T19:45:44;27.0;;;22.0;;
53939;SDS011;39850;43.324;21.916;2023-04-28T19:50:21;25.0;;;20.0;;
53939;SDS011;39850;43.324;21.916;2023-04-28T19:54:58;25.0;;;20.0;;
53939;SDS011;39850;43.324;21.916;2023-04-28T19:59:36;25.0;;;20.0;;
53939;SDS011;39850;43.324;21.916;2023-04-28T20:04:13;25.0;;;20.0;;
53939;SDS011;39850;43.324;21.916;2023-04-28T20:08:50;25.0;;;20.0;;
53939;SDS011;39850;43.324;21.916;2023-04-28T20:41:06;19.0;;;16.0;;
53939;SDS011;39850;43.324;21.916;2023-04-28T20:45:42;19.0;;;16.0;;
53939;SDS011;39850;43.324;21.916;2023-04-28T20:50:19;19.0;;;16.0;;
53939;SDS011;39850;43.324;21.916;2023-04-28T20:54:55;19.0;;;16.0;;
53939;SDS011;39850;43.324;21.916;2023-04-28T20:59:32;19.0;;;16.0;;
53939;SDS011;39850;43.324;21.916;2023-04-28T21:04:09;16.0;;;14.0;;
53939;SDS011;39850;43.324;21.916;2023-04-28T21:08:46;16.0;;;14.0;;
53939;SDS011;39850;43.324;21.916;2023-04-28T21:13:22;14.0;;;12.0;;
53939;SDS011;39850;43.324;21.916;2023-04-28T21:17:59;14.0;;;12.0;;
53939;SDS011;39850;43.324;21.916;2023-04-28T21:22:35;14.0;;;12.0;;
53939;SDS011;39850;43.324;21.916;2023-04-28T21:27:12;14.0;;;12.0;;
53939;SDS011;39850;43.324;21.916;2023-04-28T22:04:06;22.0;;;19.0;;
53939;SDS011;39850;43.324;21.916;2023-04-28T22:08:43;22.0;;;19.0;;
53939;SDS011;39850;43.324;21.916;2023-04-28T22:13:21;22.0;;;19.0;;
53939;SDS011;39850;43.324;21.916;2023-04-28T22:17:58;22.0;;;19.0;;
53939;SDS011;39850;43.324;21.916;2023-04-28T22:22:35;20.0;;;18.0;;
53939;SDS011;39850;43.324;21.916;2023-04-28T22:27:12;20.0;;;18.0;;
53939;SDS011;39850;43.324;21.916;2023-04-28T22:31:49;19.0;;;16.0;;
53939;SDS011;39850;43.324;21.916;2023-04-28T22:36:26;19.0;;;16.0;;
53939;SDS011;39850;43.324;21.916;2023-04-28T22:41:03;19.0;;;16.0;;
53939;SDS011;39850;43.324;21.916;2023-04-28T22:45:42;19.0;;;16.0;;
53939;SDS011;39850;43.324;21.916;2023-04-28T22:50:20;19.0;;;16.0;;
